Spray, Oregon
Current Conditions -  °F | °C
As of 5:55 AM on Wednesday 28 Jan 2015 (Local Time) from KGCD Reporting Station
Overcast Overcast  
Wind Chill: 40°   Ceiling: 3700
Heat Index: 40°   Visibility: 10mi
Dew Point: 35°   Wind: 3mph
Humidity: 82%   Direction: 90°E
Pressure: 30.3"   Gusts: NA
Location:  44.83°N, 119.79°W
Report Text: KGCD 281355Z AUTO 09003KT 10SM OVC037 05/02 A3030 RMK AO2 T00450016
Loading
Personal Weather Stations






























Interactive Weather Map New forecast layout! Learn more

10-Day Weather Forecast

Advertisements
Track Severe Weather on mobile